createdAt,value
2018-02-27T00:00:00.595Z,95942.62
2018-02-27T00:02:28.189Z,95938.48
2018-02-27T00:04:55.829Z,95945.93
2018-02-27T00:07:23.725Z,95937.23
2018-02-27T00:09:51.304Z,95942.20
2018-02-27T00:12:18.924Z,95938.13
2018-02-27T00:14:46.525Z,95936.92
2018-02-27T00:17:14.106Z,95935.24
2018-02-27T00:19:41.696Z,95933.58
2018-02-27T00:22:09.301Z,95934.83
2018-02-27T00:24:36.883Z,95927.02
2018-02-27T00:27:05.227Z,95926.23
2018-02-27T00:29:32.815Z,95927.48
2018-02-27T00:32:00.415Z,95923.75
2018-02-27T00:34:28.014Z,95921.30
2018-02-27T00:36:55.605Z,95920.44
2018-02-27T00:39:23.237Z,95908.91
2018-02-27T00:41:50.859Z,95919.22
2018-02-27T00:44:18.484Z,95915.93
2018-02-27T00:46:46.078Z,95913.03
2018-02-27T00:49:14.582Z,95911.39
2018-02-27T00:51:42.205Z,95910.57
2018-02-27T00:54:09.789Z,95908.91
2018-02-27T00:56:37.380Z,95910.16
2018-02-27T00:59:04.996Z,95908.92
2018-02-27T01:01:32.558Z,95901.90
2018-02-27T01:04:00.207Z,95904.00
2018-02-27T01:06:27.783Z,95904.02
2018-02-27T01:08:55.432Z,95900.29
2018-02-27T01:11:23.622Z,95898.22
2018-02-27T01:13:51.207Z,95889.98
2018-02-27T01:16:18.818Z,95887.10
2018-02-27T01:18:46.408Z,95890.41
2018-02-27T01:21:14.210Z,95886.66
2018-02-27T01:23:41.834Z,95885.87
2018-02-27T01:26:09.471Z,95885.45
2018-02-27T01:28:37.058Z,95892.87
2018-02-27T01:31:05.110Z,95879.66
2018-02-27T01:33:32.741Z,95878.02
2018-02-27T01:36:00.324Z,95878.44
2018-02-27T01:38:27.883Z,95871.03
2018-02-27T01:40:55.478Z,95868.96
2018-02-27T01:43:23.068Z,95861.53
2018-02-27T01:45:50.664Z,95859.48
2018-02-27T01:48:18.289Z,95857.00
2018-02-27T01:50:45.972Z,95849.99
2018-02-27T01:53:13.898Z,95853.30
2018-02-27T01:55:41.519Z,95849.98
2018-02-27T01:58:09.174Z,95853.69
2018-02-27T02:00:36.765Z,95854.95
2018-02-27T02:03:04.760Z,95850.84
2018-02-27T02:05:32.365Z,95849.20
2018-02-27T02:07:59.930Z,95850.87
2018-02-27T02:10:27.850Z,95848.39
2018-02-27T02:12:55.474Z,95844.66
2018-02-27T02:15:23.110Z,95837.67
2018-02-27T02:17:50.961Z,95841.38
2018-02-27T02:20:18.578Z,95843.43
2018-02-27T02:22:46.201Z,95841.78
2018-02-27T02:25:13.959Z,95851.67
2018-02-27T02:27:41.591Z,95835.17
2018-02-27T02:30:09.191Z,95837.27
2018-02-27T02:32:36.777Z,95829.00
2018-02-27T02:35:04.445Z,95834.79
2018-02-27T02:37:32.043Z,95830.66
2018-02-27T02:39:59.623Z,95831.06
2018-02-27T02:42:27.296Z,95831.49
2018-02-27T02:44:54.904Z,95829.82
2018-02-27T02:47:22.727Z,95830.25
2018-02-27T02:49:50.338Z,95832.70
2018-02-27T02:52:17.998Z,95834.77
2018-02-27T02:54:45.571Z,95831.89
2018-02-27T02:57:13.824Z,95835.19
2018-02-27T02:59:41.428Z,95832.29
2018-02-27T03:02:09.077Z,95831.05
2018-02-27T03:04:36.656Z,95830.67
2018-02-27T03:07:04.870Z,95836.44
2018-02-27T03:09:32.689Z,95832.72
2018-02-27T03:12:00.680Z,95825.30
2018-02-27T03:14:29.331Z,95827.78
2018-02-27T03:16:57.483Z,95827.34
2018-02-27T03:19:25.159Z,95826.55
2018-02-27T03:21:55.031Z,95819.52
2018-02-27T03:24:22.597Z,95821.99
2018-02-27T03:26:51.464Z,95821.58
2018-02-27T03:29:22.146Z,95823.64
2018-02-27T03:31:49.819Z,95821.17
2018-02-27T03:34:17.570Z,95817.89
2018-02-27T03:36:45.160Z,95814.59
2018-02-27T03:39:13.982Z,95816.23
2018-02-27T03:41:41.924Z,95817.47
2018-02-27T03:44:09.565Z,95808.00
2018-02-27T03:46:37.165Z,95812.92
2018-02-27T03:49:04.842Z,95810.86
2018-02-27T03:51:34.003Z,95811.70
2018-02-27T03:54:04.121Z,95807.99
2018-02-27T03:56:31.819Z,95811.70
2018-02-27T03:59:00.463Z,95810.47
2018-02-27T04:01:28.105Z,95815.00
2018-02-27T04:03:55.719Z,95812.12
2018-02-27T04:06:23.309Z,95809.23
2018-02-27T04:08:50.894Z,95811.71
2018-02-27T04:11:18.486Z,95800.14
2018-02-27T04:13:46.084Z,95807.16
2018-02-27T04:16:13.769Z,95808.39
2018-02-27T04:18:41.390Z,95806.73
2018-02-27T04:21:10.312Z,95810.03
2018-02-27T04:23:40.086Z,95803.05
2018-02-27T04:26:08.023Z,95805.50
2018-02-27T04:28:35.664Z,95807.14
2018-02-27T04:31:03.289Z,95807.96
2018-02-27T04:33:31.154Z,95808.39
2018-02-27T04:35:58.821Z,95808.82
2018-02-27T04:38:31.361Z,95798.09
2018-02-27T04:41:04.455Z,95803.42
2018-02-27T04:43:37.633Z,95806.73
2018-02-27T04:46:10.169Z,95802.20
2018-02-27T04:48:42.282Z,95806.74
2018-02-27T04:53:51.952Z,95808.78
2018-02-27T04:56:24.648Z,95809.22
2018-02-27T04:58:52.274Z,95803.42
2018-02-27T05:01:26.189Z,95799.30
2018-02-27T05:03:54.416Z,95801.80
2018-02-27T05:06:24.615Z,95794.80
2018-02-27T05:08:52.323Z,95798.08
2018-02-27T05:11:22.359Z,95798.90
2018-02-27T05:13:50.127Z,95795.19
2018-02-27T05:16:17.760Z,95794.36
2018-02-27T05:18:45.379Z,95794.37
2018-02-27T05:21:13.543Z,95793.13
2018-02-27T05:23:41.129Z,95793.13
2018-02-27T05:26:08.811Z,95795.20
2018-02-27T05:28:36.454Z,95793.55
2018-02-27T05:31:04.088Z,95790.66
2018-02-27T05:33:31.705Z,95791.08
2018-02-27T05:35:59.508Z,95794.77
2018-02-27T05:38:27.105Z,95790.25
2018-02-27T05:40:54.691Z,95798.48
2018-02-27T05:43:22.924Z,95792.70
2018-02-27T05:45:50.552Z,95796.00
2018-02-27T05:48:18.151Z,95789.44
2018-02-27T05:50:45.742Z,95796.84
2018-02-27T05:53:13.421Z,95799.31
2018-02-27T05:55:42.099Z,95789.82
2018-02-27T05:58:09.728Z,95794.77
2018-02-27T06:00:37.300Z,95794.75
2018-02-27T06:03:04.926Z,95800.52
2018-02-27T06:05:32.578Z,95796.41
2018-02-27T06:08:00.180Z,95797.22
2018-02-27T06:10:28.031Z,95799.67
2018-02-27T06:12:55.729Z,95800.53
2018-02-27T06:15:24.410Z,95798.90
2018-02-27T06:17:52.087Z,95799.71
2018-02-27T06:20:19.649Z,95801.36
2018-02-27T06:22:47.290Z,95796.41
2018-02-27T06:25:14.914Z,95800.94
2018-02-27T06:27:42.528Z,95805.89
2018-02-27T06:30:10.125Z,95801.78
2018-02-27T06:32:37.732Z,95809.19
2018-02-27T06:35:05.678Z,95806.74
2018-02-27T06:37:33.271Z,95803.03
2018-02-27T06:40:02.676Z,95799.75
2018-02-27T06:42:30.280Z,95791.92
2018-02-27T06:44:57.919Z,95791.08
2018-02-27T06:47:28.099Z,95792.74
2018-02-27T06:49:55.683Z,95785.34
2018-02-27T06:52:24.501Z,95784.91
2018-02-27T06:54:52.095Z,95788.64
2018-02-27T06:57:19.754Z,95789.86
2018-02-27T06:59:47.441Z,95786.97
2018-02-27T07:02:15.035Z,95796.47
2018-02-27T07:04:45.157Z,95787.39
2018-02-27T07:07:12.798Z,95791.09
2018-02-27T07:09:40.398Z,95793.16
2018-02-27T07:12:08.034Z,95792.73
2018-02-27T07:14:38.723Z,95795.20
2018-02-27T07:17:06.504Z,95801.79
2018-02-27T07:19:34.108Z,95803.38
2018-02-27T07:22:01.698Z,95801.33
2018-02-27T07:24:29.305Z,95802.95
2018-02-27T07:26:57.482Z,95797.53
2018-02-27T07:29:25.418Z,95794.98
2018-02-27T07:31:53.302Z,95791.77
2018-02-27T07:34:21.497Z,95795.16
2018-02-27T07:36:49.078Z,95795.52
2018-02-27T07:39:16.703Z,95794.66
2018-02-27T07:41:44.450Z,95788.34
2018-02-27T07:44:12.064Z,95791.08
2018-02-27T07:46:41.218Z,95786.78
2018-02-27T07:49:08.958Z,95780.58
2018-02-27T07:51:36.531Z,95782.27
2018-02-27T07:54:04.600Z,95766.99
2018-02-27T07:56:32.180Z,95785.47
2018-02-27T07:58:59.780Z,95793.75
2018-02-27T08:01:27.373Z,95787.89
2018-02-27T08:03:55.009Z,95793.28
2018-02-27T08:06:22.577Z,95785.09
2018-02-27T08:08:50.177Z,95784.72
2018-02-27T08:11:18.299Z,95788.89
2018-02-27T08:13:45.896Z,95787.27
2018-02-27T08:16:14.811Z,95789.30
2018-02-27T08:18:42.345Z,95784.36
2018-02-27T08:21:10.815Z,95779.38
2018-02-27T08:23:38.410Z,95779.34
2018-02-27T08:26:06.032Z,95782.25
2018-02-27T08:28:33.647Z,95787.58
2018-02-27T08:31:02.216Z,95787.17
2018-02-27T08:33:30.844Z,95778.87
2018-02-27T08:35:58.472Z,95778.37
2018-02-27T08:38:27.348Z,95791.63
2018-02-27T08:40:55.012Z,95789.27
2018-02-27T08:43:23.044Z,95784.95
2018-02-27T08:45:51.061Z,95786.61
2018-02-27T08:48:18.694Z,95781.73
2018-02-27T08:50:46.289Z,95788.11
2018-02-27T08:53:14.526Z,95782.02
2018-02-27T08:55:43.023Z,95783.20
2018-02-27T08:58:10.709Z,95779.83
2018-02-27T09:00:38.381Z,95783.17
2018-02-27T09:03:06.119Z,95773.81
2018-02-27T09:05:34.034Z,95779.08
2018-02-27T09:08:01.620Z,95777.73
2018-02-27T09:10:30.478Z,95772.38
2018-02-27T09:12:58.111Z,95769.78
2018-02-27T09:15:25.728Z,95767.48
2018-02-27T09:17:53.319Z,95770.88
2018-02-27T09:20:21.193Z,95766.29
2018-02-27T09:22:48.672Z,95766.24
2018-02-27T09:25:16.389Z,95766.81
2018-02-27T09:27:44.034Z,95763.13
2018-02-27T09:30:11.698Z,95743.14
2018-02-27T09:32:39.310Z,95757.95
2018-02-27T09:35:07.179Z,95754.46
2018-02-27T09:37:35.189Z,95761.51
2018-02-27T09:40:03.146Z,95763.98
2018-02-27T09:42:32.082Z,95755.45
2018-02-27T09:44:59.745Z,95757.48
2018-02-27T09:47:27.332Z,95757.08
2018-02-27T09:49:54.915Z,95753.81
2018-02-27T09:52:24.953Z,95755.30
2018-02-27T09:54:53.466Z,95764.22
2018-02-27T09:57:21.063Z,95754.42
2018-02-27T09:59:48.706Z,95756.86
2018-02-27T10:02:16.306Z,95756.34
2018-02-27T10:04:43.953Z,95751.67
2018-02-27T10:07:12.027Z,95750.00
2018-02-27T10:09:39.690Z,95756.08
2018-02-27T10:12:07.354Z,95755.28
2018-02-27T10:14:34.999Z,95742.63
2018-02-27T10:17:02.630Z,95750.59
2018-02-27T10:19:33.238Z,95752.88
2018-02-27T10:22:00.970Z,95745.09
2018-02-27T10:24:28.604Z,95750.40
2018-02-27T10:26:56.192Z,95757.61
2018-02-27T10:29:23.972Z,95759.82
2018-02-27T10:31:51.934Z,95762.86
2018-02-27T10:34:19.529Z,95769.07
2018-02-27T10:36:47.186Z,95770.63
2018-02-27T10:39:14.786Z,95775.47
2018-02-27T10:41:42.387Z,95779.52
2018-02-27T10:44:10.124Z,95776.23
2018-02-27T10:46:37.707Z,95771.54
2018-02-27T10:49:05.851Z,95769.86
2018-02-27T10:51:33.504Z,95764.52
2018-02-27T10:54:01.127Z,95769.36
2018-02-27T10:56:28.885Z,95768.48
2018-02-27T10:58:56.525Z,95767.95
2018-02-27T11:01:24.152Z,95769.92
2018-02-27T11:03:55.739Z,95771.82
2018-02-27T11:06:23.878Z,95767.62
2018-02-27T11:08:51.503Z,95774.55
2018-02-27T11:11:21.552Z,95768.61
2018-02-27T11:13:49.197Z,95773.49
2018-02-27T11:16:17.151Z,95764.16
2018-02-27T11:18:44.913Z,95766.30
2018-02-27T11:21:12.834Z,95765.61
2018-02-27T11:23:40.408Z,95759.12
2018-02-27T11:26:10.923Z,95762.13
2018-02-27T11:28:42.033Z,95761.86
2018-02-27T11:31:13.556Z,95757.53
2018-02-27T11:33:41.520Z,95754.40
2018-02-27T11:36:10.646Z,95749.47
2018-02-27T11:38:42.630Z,95760.42
2018-02-27T11:41:10.786Z,95759.20
2018-02-27T11:43:38.861Z,95759.14
2018-02-27T11:46:08.224Z,95753.17
2018-02-27T11:48:36.537Z,95753.92
2018-02-27T11:51:05.549Z,95755.39
2018-02-27T11:53:33.986Z,95756.37
2018-02-27T11:56:01.684Z,95751.98
2018-02-27T11:58:29.292Z,95744.54
2018-02-27T12:00:58.902Z,95755.80
2018-02-27T12:03:26.600Z,95753.42
2018-02-27T12:05:54.222Z,95742.55
2018-02-27T12:08:21.907Z,95751.70
2018-02-27T12:10:49.536Z,95759.52
2018-02-27T12:13:17.375Z,95699.81
2018-02-27T12:15:45.228Z,95749.33
2018-02-27T12:18:12.805Z,95741.05
2018-02-27T12:20:40.431Z,95739.24
2018-02-27T12:23:08.612Z,95746.36
2018-02-27T12:25:36.551Z,95747.39
2018-02-27T12:28:04.147Z,95746.37
2018-02-27T12:30:33.869Z,95745.88
2018-02-27T12:33:01.500Z,95738.17
2018-02-27T12:35:29.104Z,95738.48
2018-02-27T12:37:56.745Z,95737.27
2018-02-27T12:40:24.360Z,95745.41
2018-02-27T12:42:51.960Z,95743.41
2018-02-27T12:45:19.614Z,95736.52
2018-02-27T12:47:47.203Z,95745.02
2018-02-27T12:50:14.839Z,95746.47
2018-02-27T12:52:42.448Z,95741.88
2018-02-27T12:55:10.680Z,95738.63
2018-02-27T12:57:42.320Z,95741.12
2018-02-27T13:00:09.933Z,95748.22
2018-02-27T13:02:37.588Z,95742.95
2018-02-27T13:05:05.224Z,95750.27
2018-02-27T13:07:32.957Z,95752.38
2018-02-27T13:10:00.616Z,95750.71
2018-02-27T13:12:28.370Z,95749.77
2018-02-27T13:14:56.098Z,95745.71
2018-02-27T13:17:23.808Z,95742.31
2018-02-27T13:19:51.578Z,95749.30
2018-02-27T13:22:19.928Z,95739.23
2018-02-27T13:24:47.540Z,95745.59
2018-02-27T13:27:15.552Z,95733.78
2018-02-27T13:29:43.141Z,95731.05
2018-02-27T13:32:10.851Z,95734.59
2018-02-27T13:34:38.462Z,95738.13
2018-02-27T13:37:06.376Z,95735.80
2018-02-27T13:39:34.432Z,95731.75
2018-02-27T13:42:02.084Z,95732.39
2018-02-27T13:44:29.791Z,95733.34
2018-02-27T13:46:57.415Z,95736.42
2018-02-27T13:49:25.535Z,95735.09
2018-02-27T13:51:53.185Z,95729.52
2018-02-27T13:54:20.787Z,95732.05
2018-02-27T13:56:48.407Z,95734.67
2018-02-27T13:59:16.024Z,95738.23
2018-02-27T14:01:43.639Z,95735.72
2018-02-27T14:04:11.270Z,95738.60
2018-02-27T14:06:38.868Z,95748.97
2018-02-27T14:09:07.460Z,95747.49
2018-02-27T14:11:35.090Z,95749.57
2018-02-27T14:14:02.675Z,95750.61
2018-02-27T14:16:30.296Z,95755.58
2018-02-27T14:18:57.908Z,95754.27
2018-02-27T14:21:28.030Z,95751.75
2018-02-27T14:23:55.777Z,95750.80
2018-02-27T14:26:23.379Z,95749.98
2018-02-27T14:28:50.979Z,95750.73
2018-02-27T14:31:19.768Z,95749.64
2018-02-27T14:33:47.410Z,95751.86
2018-02-27T14:36:14.994Z,95744.72
2018-02-27T14:38:42.585Z,95744.66
2018-02-27T14:41:10.896Z,95745.45
2018-02-27T14:43:38.464Z,95752.36
2018-02-27T14:46:06.077Z,95747.20
2018-02-27T14:48:33.694Z,95745.39
2018-02-27T14:51:01.273Z,95759.50
2018-02-27T14:53:30.436Z,95749.00
2018-02-27T14:55:58.087Z,95755.53
2018-02-27T14:58:25.974Z,95757.16
2018-02-27T15:00:53.595Z,95754.20
2018-02-27T15:03:25.390Z,95756.34
2018-02-27T15:05:53.676Z,95756.28
2018-02-27T15:08:21.319Z,95753.90
2018-02-27T15:10:48.934Z,95760.22
2018-02-27T15:13:16.725Z,95756.50
2018-02-27T15:15:47.310Z,95763.90
2018-02-27T15:18:15.012Z,95759.45
2018-02-27T15:20:42.620Z,95765.55
2018-02-27T15:23:10.380Z,95760.59
2018-02-27T15:25:37.984Z,95757.22
2018-02-27T15:28:10.852Z,95761.80
2018-02-27T15:30:38.464Z,95760.63
2018-02-27T15:33:06.408Z,95763.97
2018-02-27T15:35:34.233Z,95758.68
2018-02-27T15:38:01.839Z,95763.67
2018-02-27T15:40:29.419Z,95774.88
2018-02-27T15:42:57.009Z,95772.36
2018-02-27T15:45:25.145Z,95775.66
2018-02-27T15:47:52.850Z,95769.77
2018-02-27T15:50:20.512Z,95776.50
2018-02-27T15:52:48.108Z,95778.14
2018-02-27T15:55:16.268Z,95775.98
2018-02-27T15:57:43.902Z,95776.09
2018-02-27T16:00:11.515Z,95781.55
2018-02-27T16:02:39.107Z,95782.05
2018-02-27T16:05:07.064Z,95774.25
2018-02-27T16:07:35.084Z,95777.52
2018-02-27T16:10:02.691Z,95780.75
2018-02-27T16:12:30.286Z,95782.02
2018-02-27T16:14:57.892Z,95780.08
2018-02-27T16:17:25.492Z,95783.12
2018-02-27T16:19:53.068Z,95786.04
2018-02-27T16:22:20.956Z,95793.09
2018-02-27T16:24:48.771Z,95796.83
2018-02-27T16:27:17.410Z,95803.11
2018-02-27T16:29:45.057Z,95804.44
2018-02-27T16:32:12.624Z,95804.41
2018-02-27T16:34:40.303Z,95804.83
2018-02-27T16:37:08.501Z,95804.05
2018-02-27T16:39:37.761Z,95806.53
2018-02-27T16:42:05.382Z,95810.68
2018-02-27T16:44:33.061Z,95809.44
2018-02-27T16:47:00.647Z,95817.28
2018-02-27T16:49:28.249Z,95818.13
2018-02-27T16:51:55.877Z,95820.61
2018-02-27T16:54:25.660Z,95826.82
2018-02-27T16:56:53.272Z,95828.09
2018-02-27T16:59:20.873Z,95827.74
2018-02-27T17:01:48.512Z,95831.07
2018-02-27T17:04:16.183Z,95832.29
2018-02-27T17:06:43.762Z,95832.70
2018-02-27T17:11:45.644Z,95834.36
2018-02-27T17:14:13.276Z,95833.95
2018-02-27T17:16:40.921Z,95829.80
2018-02-27T17:19:09.099Z,95834.38
2018-02-27T17:21:36.735Z,95835.66
2018-02-27T17:24:04.504Z,95837.75
2018-02-27T17:26:32.306Z,95838.97
2018-02-27T17:28:59.970Z,95840.19
2018-02-27T17:31:27.816Z,95843.53
2018-02-27T17:33:55.523Z,95843.95
2018-02-27T17:36:24.462Z,95849.33
2018-02-27T17:38:52.086Z,95846.41
2018-02-27T17:41:21.395Z,95840.22
2018-02-27T17:43:49.119Z,95841.83
2018-02-27T17:46:16.789Z,95848.03
2018-02-27T17:48:44.420Z,95844.73
2018-02-27T17:51:12.288Z,95845.97
2018-02-27T17:53:40.035Z,95842.28
2018-02-27T17:56:07.766Z,95852.59
2018-02-27T17:58:35.546Z,95849.30
2018-02-27T18:01:03.308Z,95845.22
2018-02-27T18:03:31.725Z,95841.90
2018-02-27T18:06:00.049Z,95842.69
2018-02-27T18:08:28.694Z,95843.96
2018-02-27T18:10:56.531Z,95848.08
2018-02-27T18:13:24.706Z,95852.20
2018-02-27T18:15:52.811Z,95845.22
2018-02-27T18:18:21.204Z,95850.19
2018-02-27T18:20:49.824Z,95844.84
2018-02-27T18:23:18.118Z,95851.03
2018-02-27T18:25:46.588Z,95850.22
2018-02-27T18:28:18.222Z,95845.67
2018-02-27T18:30:46.090Z,95855.15
2018-02-27T18:33:14.688Z,95851.85
2018-02-27T18:35:42.571Z,95853.90
2018-02-27T18:38:11.235Z,95858.05
2018-02-27T18:40:39.050Z,95855.17
2018-02-27T18:43:07.158Z,95859.71
2018-02-27T18:45:37.314Z,95862.58
2018-02-27T18:48:05.232Z,95868.78
2018-02-27T18:50:34.672Z,95862.98
2018-02-27T18:53:02.523Z,95869.17
2018-02-27T18:55:30.603Z,95865.41
2018-02-27T18:57:59.136Z,95867.92
2018-02-27T19:00:26.968Z,95872.02
2018-02-27T19:02:56.150Z,95871.98
2018-02-27T19:07:59.630Z,95880.11
2018-02-27T19:10:29.922Z,95868.00
2018-02-27T19:12:59.702Z,95875.77
2018-02-27T19:15:34.287Z,95878.57
2018-02-27T19:18:03.404Z,95876.92
2018-02-27T19:20:31.572Z,95877.45
2018-02-27T19:22:59.829Z,95875.00
2018-02-27T19:25:30.821Z,95874.14
2018-02-27T19:27:58.635Z,95880.06
2018-02-27T19:30:26.542Z,95890.04
2018-02-27T19:32:54.875Z,95881.78
2018-02-27T19:35:22.801Z,95886.56
2018-02-27T19:37:54.413Z,95886.53
2018-02-27T19:40:23.365Z,95893.53
2018-02-27T19:42:51.247Z,95896.84
2018-02-27T19:45:31.726Z,95889.81
2018-02-27T19:48:02.326Z,95896.81
2018-02-27T19:50:30.833Z,95902.98
2018-02-27T19:52:58.703Z,95904.59
2018-02-27T19:55:26.672Z,95902.11
2018-02-27T19:57:58.373Z,95898.91
2018-02-27T20:00:26.396Z,95898.18
2018-02-27T20:02:54.515Z,95900.72
2018-02-27T20:05:23.714Z,95909.02
2018-02-27T20:07:51.683Z,95902.38
2018-02-27T20:10:19.664Z,95909.51
2018-02-27T20:12:47.786Z,95910.76
2018-02-27T20:15:16.354Z,95911.98
2018-02-27T20:17:49.604Z,95915.73
2018-02-27T20:20:17.348Z,95921.99
2018-02-27T20:22:51.377Z,95914.95
2018-02-27T20:25:20.255Z,95926.06
2018-02-27T20:27:48.462Z,95919.88
2018-02-27T20:30:16.274Z,95925.70
2018-02-27T20:32:43.970Z,95921.15
2018-02-27T20:35:12.476Z,95925.30
2018-02-27T20:37:40.461Z,95927.33
2018-02-27T20:40:08.206Z,95919.47
2018-02-27T20:42:36.049Z,95924.50
2018-02-27T20:45:04.990Z,95926.13
2018-02-27T20:47:33.364Z,95928.19
2018-02-27T20:50:01.103Z,95921.94
2018-02-27T20:52:28.838Z,95926.94
2018-02-27T20:54:56.575Z,95931.08
2018-02-27T20:57:27.442Z,95931.95
2018-02-27T20:59:55.104Z,95930.73
2018-02-27T21:02:22.757Z,95931.55
2018-02-27T21:04:50.434Z,95929.51
2018-02-27T21:07:18.635Z,95930.31
2018-02-27T21:09:46.718Z,95924.11
2018-02-27T21:12:14.709Z,95929.08
2018-02-27T21:14:42.321Z,95927.03
2018-02-27T21:17:10.824Z,95934.48
2018-02-27T21:19:38.598Z,95937.38
2018-02-27T21:22:06.174Z,95931.17
2018-02-27T21:24:33.798Z,95939.42
2018-02-27T21:27:01.410Z,95932.42
2018-02-27T21:29:29.397Z,95937.39
2018-02-27T21:34:47.342Z,95940.72
2018-02-27T21:37:15.067Z,95944.41
2018-02-27T21:39:42.778Z,95937.80
2018-02-27T21:42:10.920Z,95941.94
2018-02-27T21:44:38.524Z,95939.48
2018-02-27T21:47:06.577Z,95938.23
2018-02-27T21:49:34.345Z,95937.41
2018-02-27T21:52:02.005Z,95943.59
2018-02-27T21:54:29.658Z,95945.66
2018-02-27T21:56:57.319Z,95944.02
2018-02-27T21:59:24.976Z,95946.49
2018-02-27T22:01:52.591Z,95943.18
2018-02-27T22:04:20.292Z,95949.38
2018-02-27T22:06:47.981Z,95951.44
2018-02-27T22:09:15.970Z,95952.68
2018-02-27T22:11:43.713Z,95950.19
2018-02-27T22:14:11.338Z,95958.86
2018-02-27T22:16:38.948Z,95951.01
2018-02-27T22:19:07.427Z,95952.66
2018-02-27T22:21:35.372Z,95962.14
2018-02-27T22:24:03.003Z,95958.02
2018-02-27T22:26:30.683Z,95957.20
2018-02-27T22:28:58.271Z,95954.31
2018-02-27T22:31:25.939Z,95956.38
2018-02-27T22:33:53.658Z,95958.43
2018-02-27T22:36:21.504Z,95958.44
2018-02-27T22:38:49.185Z,95957.62
2018-02-27T22:41:16.933Z,95964.64
2018-02-27T22:43:44.569Z,95965.06
2018-02-27T22:46:12.420Z,95964.64
2018-02-27T22:48:40.008Z,95962.98
2018-02-27T22:51:08.165Z,95964.62
2018-02-27T22:53:36.292Z,95960.09
2018-02-27T22:56:03.918Z,95963.39
2018-02-27T22:58:31.556Z,95961.72
2018-02-27T23:00:59.198Z,95960.50
2018-02-27T23:03:26.863Z,95965.86
2018-02-27T23:05:54.459Z,95965.84
2018-02-27T23:08:26.870Z,95966.28
2018-02-27T23:10:54.491Z,95970.39
2018-02-27T23:13:28.113Z,95965.39
2018-02-27T23:15:55.896Z,95978.17
2018-02-27T23:18:23.524Z,95975.73
2018-02-27T23:20:51.769Z,95973.28
2018-02-27T23:23:20.452Z,95974.09
2018-02-27T23:26:07.405Z,95976.15
2018-02-27T23:28:42.524Z,95981.52
2018-02-27T23:31:11.673Z,95978.23
2018-02-27T23:33:44.008Z,95976.15
2018-02-27T23:36:11.659Z,95978.22
2018-02-27T23:38:39.313Z,95977.78
2018-02-27T23:41:07.247Z,95972.02
2018-02-27T23:43:35.099Z,95973.70
2018-02-27T23:46:02.676Z,95974.09
2018-02-27T23:48:30.335Z,95971.61
2018-02-27T23:50:57.916Z,95976.55
2018-02-27T23:53:25.881Z,95973.66
2018-02-27T23:55:53.791Z,95975.34
2018-02-27T23:58:21.369Z,95980.31
